createdAt,value
2023-03-23T00:01:58.698Z,99.9
2023-03-23T00:04:05.015Z,99.9
2023-03-23T00:06:11.256Z,99.9
2023-03-23T00:08:20.377Z,99.9
2023-03-23T00:10:26.639Z,99.9
2023-03-23T00:16:45.455Z,99.9
2023-03-23T00:18:51.719Z,99.9
2023-03-23T00:27:19.672Z,99.9
2023-03-23T00:31:32.217Z,99.9
2023-03-23T00:33:38.502Z,99.9
2023-03-23T00:35:45.001Z,99.9
2023-03-23T00:37:53.872Z,99.9
2023-03-23T00:40:00.190Z,99.9
2023-03-23T00:42:06.425Z,99.9
2023-03-23T00:45:17.214Z,99.9
2023-03-23T00:49:29.801Z,99.9
2023-03-23T01:00:05.581Z,99.9
2023-03-23T01:02:10.333Z,99.9
2023-03-23T01:06:25.661Z,99.9
2023-03-23T01:12:44.520Z,99.9
2023-03-23T01:14:50.772Z,99.9
2023-03-23T01:19:03.292Z,99.9
2023-03-23T01:25:24.960Z,99.9
2023-03-23T01:27:31.215Z,99.9
2023-03-23T01:29:37.462Z,99.9
2023-03-23T01:31:43.760Z,99.9
2023-03-23T01:33:50.030Z,99.9
2023-03-23T01:38:05.369Z,99.9
2023-03-23T01:40:11.659Z,99.9
2023-03-23T01:44:37.669Z,99.9
2023-03-23T01:48:53.019Z,99.9
2023-03-23T01:50:59.304Z,99.9
2023-03-23T01:53:05.583Z,99.9
2023-03-23T01:55:11.827Z,99.9
2023-03-23T01:57:18.117Z,99.9
2023-03-23T01:59:24.382Z,99.9
2023-03-23T02:01:30.639Z,99.9
2023-03-23T02:03:39.728Z,99.9
2023-03-23T02:05:46.010Z,99.9
2023-03-23T02:07:52.262Z,99.9
2023-03-23T02:09:58.552Z,99.9
2023-03-23T02:12:04.806Z,99.9
2023-03-23T02:18:26.430Z,99.9
2023-03-23T02:20:32.722Z,99.9
2023-03-23T02:24:45.232Z,99.9
2023-03-23T02:26:51.514Z,99.9
2023-03-23T02:31:05.010Z,99.9
2023-03-23T02:38:30.224Z,99.9
2023-03-23T02:40:36.476Z,99.9
2023-03-23T02:42:42.744Z,99.6
2023-03-23T02:46:58.097Z,95.8
2023-03-23T03:01:44.855Z,46.5
2023-03-23T03:03:51.076Z,48.2
2023-03-23T03:05:57.357Z,68.3
2023-03-23T03:08:03.639Z,90.8
2023-03-23T03:10:09.900Z,98.6
2023-03-23T03:12:16.178Z,92.9
2023-03-23T03:14:22.433Z,78.8
2023-03-23T03:16:31.529Z,90.4
2023-03-23T03:18:37.820Z,91.4
2023-03-23T03:20:44.050Z,93.3
2023-03-23T03:22:50.337Z,94.7
2023-03-23T03:24:56.616Z,94.5
2023-03-23T03:27:02.871Z,98.6
2023-03-23T03:29:09.167Z,98.8
2023-03-23T03:31:18.270Z,92.3
2023-03-23T03:33:24.518Z,88
2023-03-23T03:35:30.799Z,88.5
2023-03-23T03:36:35.362Z,75.9
2023-03-23T03:38:41.635Z,76.6
2023-03-23T03:42:54.172Z,84.4
2023-03-23T03:45:03.263Z,62.3
2023-03-23T03:47:09.565Z,60.6
2023-03-23T03:49:15.816Z,33.9
2023-03-23T03:51:22.115Z,28.3
2023-03-23T03:53:28.867Z,15.1
2023-03-23T03:55:34.652Z,1
2023-03-23T03:57:40.950Z,1
2023-03-23T03:59:50.029Z,1
2023-03-23T04:01:56.304Z,1
2023-03-23T04:04:02.583Z,1
2023-03-23T04:08:15.133Z,1
2023-03-23T04:10:32.608Z,1
2023-03-23T04:14:36.785Z,1
2023-03-23T04:16:54.355Z,1
2023-03-23T04:18:49.351Z,1
2023-03-23T04:20:55.619Z,1
2023-03-23T04:23:01.885Z,1
2023-03-23T04:25:08.181Z,1
2023-03-23T04:27:14.460Z,1
2023-03-23T04:31:29.821Z,1
2023-03-23T04:33:59.625Z,1
2023-03-23T04:34:40.643Z,1
2023-03-23T04:38:53.190Z,1
2023-03-23T04:40:59.456Z,1
2023-03-23T04:43:08.576Z,1
2023-03-23T04:45:14.888Z,1
2023-03-23T04:53:39.930Z,1
2023-03-23T04:55:46.328Z,1
2023-03-23T04:57:55.333Z,1
2023-03-23T05:00:01.615Z,1
2023-03-23T05:02:14.703Z,1
2023-03-23T05:06:20.424Z,1
2023-03-23T05:08:26.681Z,1
2023-03-23T05:10:32.965Z,1
2023-03-23T05:12:42.079Z,1
2023-03-23T05:14:48.345Z,1
2023-03-23T05:16:54.626Z,1
2023-03-23T05:19:00.914Z,1
2023-03-23T05:21:07.163Z,1
2023-03-23T05:23:13.455Z,1
2023-03-23T05:25:19.717Z,1
2023-03-23T05:27:28.806Z,1
2023-03-23T05:29:35.135Z,1
2023-03-23T05:31:41.392Z,1
2023-03-23T05:46:41.623Z,1
2023-03-23T05:50:54.150Z,1
2023-03-23T05:59:23.602Z,1
2023-03-23T06:01:29.859Z,1
2023-03-23T06:03:36.134Z,1
2023-03-23T06:05:42.659Z,1
2023-03-23T06:07:48.692Z,1
2023-03-23T06:09:57.798Z,1
2023-03-23T06:20:29.189Z,1
2023-03-23T06:22:35.428Z,1
2023-03-23T06:24:44.512Z,1
2023-03-23T06:26:50.821Z,1
2023-03-23T06:30:01.612Z,92.3
2023-03-23T06:32:07.888Z,99.6
2023-03-23T06:40:35.783Z,1
2023-03-23T06:42:42.085Z,61.5
2023-03-23T06:44:48.339Z,99.6
2023-03-23T06:49:00.863Z,99.8
2023-03-23T06:55:22.492Z,99.8
2023-03-23T06:57:28.740Z,99.9
2023-03-23T06:59:35.015Z,99.9
2023-03-23T07:01:41.277Z,99.9
2023-03-23T07:03:47.507Z,99.9
2023-03-23T07:16:27.928Z,99.8
2023-03-23T07:18:34.160Z,99.8
2023-03-23T07:20:40.454Z,99.8
2023-03-23T07:22:49.503Z,1
2023-03-23T07:24:55.764Z,1
2023-03-23T07:27:02.348Z,99.9
2023-03-23T07:30:12.832Z,99.9
2023-03-23T07:32:19.076Z,99.9
2023-03-23T07:36:34.432Z,99.9
2023-03-23T07:40:46.977Z,99.9
2023-03-23T07:42:53.240Z,1
2023-03-23T07:44:59.497Z,1
2023-03-23T07:47:05.765Z,99.9
2023-03-23T07:49:12.017Z,99.9
2023-03-23T07:51:21.124Z,99.9
2023-03-23T07:53:27.361Z,99.9
2023-03-23T07:55:33.649Z,99.9
2023-03-23T08:03:58.707Z,69.9
2023-03-23T08:06:07.790Z,3.1
2023-03-23T08:08:14.066Z,1
2023-03-23T08:16:39.161Z,1
2023-03-23T08:18:45.426Z,1
2023-03-23T08:20:55.476Z,1
2023-03-23T08:23:00.787Z,1
2023-03-23T08:25:07.073Z,3.2
2023-03-23T08:26:11.601Z,3.2
2023-03-23T08:28:17.901Z,14.6
2023-03-23T08:30:24.137Z,13.9
2023-03-23T08:38:52.043Z,27.3
2023-03-23T08:51:32.523Z,91.4
2023-03-23T08:57:51.335Z,32.8
2023-03-23T09:04:12.944Z,82.1
2023-03-23T09:06:19.231Z,98.6
2023-03-23T09:08:25.487Z,93.3
2023-03-23T09:10:31.774Z,41.2
2023-03-23T09:12:38.040Z,75.1
2023-03-23T09:14:44.313Z,44.1
2023-03-23T09:23:12.239Z,38.1
2023-03-23T09:25:32.006Z,62
2023-03-23T09:27:38.375Z,70.6
2023-03-23T09:29:44.574Z,15.2
2023-03-23T09:34:01.166Z,1
2023-03-23T09:36:06.261Z,1
2023-03-23T09:40:18.783Z,1
2023-03-23T10:01:27.243Z,1
2023-03-23T10:07:46.086Z,1
2023-03-23T10:09:52.380Z,1
2023-03-23T10:11:58.648Z,1
2023-03-23T10:14:04.960Z,1
2023-03-23T10:16:14.047Z,99.8
2023-03-23T10:18:20.333Z,99.8
2023-03-23T10:20:26.620Z,99.8
2023-03-23T10:21:31.152Z,99.8
2023-03-23T10:23:37.474Z,99.8
2023-03-23T10:25:43.789Z,99.8
2023-03-23T10:27:50.025Z,99.9
2023-03-23T10:29:59.129Z,99.9
2023-03-23T10:32:05.403Z,99.9
2023-03-23T10:34:11.719Z,99.9
2023-03-23T10:36:18.000Z,99.9
2023-03-23T10:38:24.260Z,99.9
2023-03-23T10:40:30.561Z,99.9
2023-03-23T10:44:45.950Z,99.9
2023-03-23T10:46:52.253Z,99.9
2023-03-23T10:48:58.510Z,99.9
2023-03-23T10:51:04.813Z,99.9
2023-03-23T10:53:11.091Z,99.9
2023-03-23T10:55:17.366Z,99.9
2023-03-23T11:05:51.620Z,99.9
2023-03-23T11:07:57.904Z,99.9
2023-03-23T11:16:25.869Z,99.9
2023-03-23T11:18:32.161Z,99.9
2023-03-23T11:19:36.697Z,99.9
2023-03-23T11:21:42.996Z,99.9
2023-03-23T11:23:51.503Z,99.9
2023-03-23T11:25:55.559Z,99.9
2023-03-23T11:28:04.679Z,99.9
2023-03-23T11:30:10.956Z,99.9
2023-03-23T11:32:17.234Z,99.9
2023-03-23T11:34:23.513Z,99.9
2023-03-23T11:36:29.775Z,99.9
2023-03-23T11:38:36.065Z,99.9
2023-03-23T11:40:42.338Z,99.9
2023-03-23T11:44:57.740Z,99.9
2023-03-23T11:47:04.032Z,99.9
2023-03-23T11:49:19.191Z,99.9
2023-03-23T11:51:16.575Z,99.9
2023-03-23T11:53:22.877Z,99.9
2023-03-23T11:55:31.125Z,99.9
2023-03-23T11:57:39.837Z,99.9
2023-03-23T11:59:46.097Z,99.9
2023-03-23T12:10:21.840Z,99.9
2023-03-23T12:12:26.649Z,99.9
2023-03-23T12:14:36.546Z,99.9
2023-03-23T12:16:39.222Z,99.9
2023-03-23T12:28:18.319Z,99.9
2023-03-23T12:30:24.604Z,99.9
2023-03-23T12:34:37.170Z,99.9
2023-03-23T12:36:43.469Z,99.9
2023-03-23T12:43:05.147Z,99.9
2023-03-23T12:47:17.724Z,22.1
2023-03-23T12:49:24.043Z,33.6
2023-03-23T12:51:30.314Z,8.6
2023-03-23T12:53:36.606Z,1
2023-03-23T12:57:51.977Z,1
2023-03-23T12:59:58.287Z,1
2023-03-23T13:04:10.828Z,99.8
2023-03-23T13:12:38.813Z,99.8
2023-03-23T13:17:05.187Z,99.9
2023-03-23T13:19:11.480Z,99.9
2023-03-23T13:21:17.734Z,99.9
2023-03-23T13:25:33.144Z,99.9
2023-03-23T13:27:39.453Z,99.9
2023-03-23T13:29:45.720Z,99.9
2023-03-23T13:31:52.006Z,99.9
2023-03-23T13:33:58.307Z,99.9
2023-03-23T13:36:08.076Z,99.9
2023-03-23T13:38:13.694Z,99.9
2023-03-23T13:40:20.004Z,99.9
2023-03-23T13:46:38.828Z,99.9
2023-03-23T13:48:45.119Z,99.9
2023-03-23T13:53:00.520Z,99.9
2023-03-23T14:09:53.631Z,99.9
2023-03-23T14:13:04.497Z,99.9
2023-03-23T14:21:32.450Z,99.9
2023-03-23T14:27:51.332Z,99.9
2023-03-23T14:29:57.598Z,99.9
2023-03-23T14:32:03.910Z,99.9
2023-03-23T14:34:10.178Z,99.9
2023-03-23T14:36:19.410Z,99.9
2023-03-23T14:38:25.594Z,1
2023-03-23T14:42:38.189Z,1
2023-03-23T14:44:44.454Z,1
2023-03-23T14:51:06.163Z,1
2023-03-23T14:53:12.415Z,1
2023-03-23T14:55:18.736Z,1
2023-03-23T14:57:25.007Z,99.9
2023-03-23T14:59:31.273Z,99.9
2023-03-23T15:01:37.572Z,99.9
2023-03-23T15:03:43.835Z,99.9
2023-03-23T15:07:59.229Z,99.9
2023-03-23T15:11:10.136Z,99.9
2023-03-23T15:13:16.391Z,99.9
2023-03-23T15:15:22.753Z,99.9
2023-03-23T15:17:28.957Z,99.9
2023-03-23T15:19:38.086Z,99.9
2023-03-23T15:23:50.669Z,99.9
2023-03-23T15:25:56.959Z,99.9
2023-03-23T15:28:03.232Z,99.9
2023-03-23T15:30:09.524Z,99.9
2023-03-23T15:32:15.836Z,99.9
2023-03-23T15:34:24.907Z,99.9
2023-03-23T15:36:31.247Z,99.9
2023-03-23T15:38:37.507Z,99.9
2023-03-23T15:40:44.038Z,99.9
2023-03-23T15:42:50.053Z,99.9
2023-03-23T15:57:36.867Z,99.9
2023-03-23T15:59:43.162Z,99.9
2023-03-23T16:03:58.546Z,99.9
2023-03-23T16:06:04.862Z,99.9
2023-03-23T16:08:11.138Z,99.9
2023-03-23T16:09:15.701Z,99.9
2023-03-23T16:11:21.993Z,99.9
2023-03-23T16:13:28.249Z,99.9
2023-03-23T16:15:34.545Z,99.9
2023-03-23T16:17:43.688Z,99.9
2023-03-23T16:21:56.236Z,99.9
2023-03-23T16:24:02.513Z,99.9
2023-03-23T16:26:08.819Z,99.9
2023-03-23T16:28:15.103Z,99.9
2023-03-23T16:30:21.353Z,99.9
2023-03-23T16:32:30.491Z,99.9
2023-03-23T16:34:36.769Z,99.9
2023-03-23T16:36:43.052Z,99.9
2023-03-23T16:38:51.122Z,99.9
2023-03-23T16:40:55.624Z,99.9
2023-03-23T16:43:01.935Z,99.9
2023-03-23T16:51:29.892Z,99.9
2023-03-23T16:55:42.709Z,99.9
2023-03-23T16:57:48.974Z,99.9
2023-03-23T17:02:04.308Z,99.9
2023-03-23T17:10:43.315Z,99.9
2023-03-23T17:12:49.622Z,99.9
2023-03-23T17:14:58.716Z,99.9
2023-03-23T17:17:05.015Z,99.9
2023-03-23T17:19:11.305Z,99.9
2023-03-23T17:21:17.584Z,99.9
2023-03-23T17:23:23.876Z,99.9
2023-03-23T17:27:36.454Z,99.9
2023-03-23T17:36:04.437Z,99.9
2023-03-23T17:38:10.728Z,99.9
2023-03-23T17:40:16.992Z,99.9
2023-03-23T17:42:23.296Z,99.9
2023-03-23T17:44:32.384Z,99.9
2023-03-23T17:46:38.687Z,99.9
2023-03-23T17:48:44.985Z,99.9
2023-03-23T17:50:51.268Z,99.9
2023-03-23T17:52:57.558Z,99.9
2023-03-23T17:57:10.211Z,99.9
2023-03-23T17:59:20.830Z,99.9
2023-03-23T18:01:27.140Z,99.9
2023-03-23T18:03:33.357Z,99.9
2023-03-23T18:04:37.914Z,99.9
2023-03-23T18:08:50.492Z,1
2023-03-23T18:10:56.790Z,1
2023-03-23T18:13:05.906Z,1
2023-03-23T18:15:12.190Z,1
2023-03-23T18:17:18.582Z,1
2023-03-23T18:19:24.760Z,1
2023-03-23T18:21:31.066Z,1
2023-03-23T18:25:43.727Z,1
2023-03-23T18:27:52.732Z,1
2023-03-23T18:34:11.578Z,1
2023-03-23T18:36:17.922Z,1
2023-03-23T18:40:30.460Z,1
2023-03-23T18:44:45.860Z,1
2023-03-23T18:48:58.440Z,1
2023-03-23T18:53:11.169Z,1
2023-03-23T18:55:17.821Z,1
2023-03-23T18:57:26.482Z,1
2023-03-23T18:59:32.772Z,1
2023-03-23T19:01:39.130Z,1
2023-03-23T19:04:49.916Z,1
2023-03-23T19:15:24.202Z,1
2023-03-23T19:17:30.499Z,1
2023-03-23T19:19:36.776Z,1
2023-03-23T19:21:46.841Z,1
2023-03-23T19:25:58.445Z,1
2023-03-23T19:30:11.021Z,1
2023-03-23T19:32:17.302Z,1
2023-03-23T19:36:30.094Z,6.9
2023-03-23T19:40:45.810Z,80.7
2023-03-23T19:47:04.254Z,61.2
2023-03-23T19:49:10.450Z,56.1
2023-03-23T20:00:49.240Z,82.8
2023-03-23T20:02:55.539Z,93.8
2023-03-23T20:05:01.807Z,98.9
2023-03-23T20:07:08.101Z,99.1
2023-03-23T20:15:35.994Z,99.7
2023-03-23T20:17:42.370Z,99.9
2023-03-23T20:19:48.735Z,99.9
2023-03-23T20:21:56.353Z,99.9
2023-03-23T20:24:03.947Z,99.9
2023-03-23T20:26:11.667Z,99.9
2023-03-23T20:30:22.796Z,99.9
2023-03-23T20:51:28.382Z,99.9
2023-03-23T20:55:44.082Z,99.9
2023-03-23T20:57:50.054Z,99.9
2023-03-23T21:00:15.859Z,99.9
2023-03-23T21:02:22.155Z,99.9
2023-03-23T21:04:28.424Z,99.9
2023-03-23T21:06:37.505Z,99.9
2023-03-23T21:08:43.815Z,99.9
2023-03-23T21:15:02.650Z,99.9
2023-03-23T21:19:15.174Z,99.9
2023-03-23T21:21:24.244Z,99.9
2023-03-23T21:23:30.530Z,99.9
2023-03-23T21:25:36.810Z,99.9
2023-03-23T21:36:11.005Z,99.9
2023-03-23T21:38:17.266Z,99.9
2023-03-23T21:40:23.549Z,99.9
2023-03-23T21:46:42.425Z,1
2023-03-23T21:50:57.710Z,59.1
2023-03-23T21:53:03.999Z,59.3
2023-03-23T21:56:14.818Z,59.6
2023-03-23T21:58:21.081Z,59.7
2023-03-23T22:00:27.361Z,59.8
2023-03-23T22:02:33.643Z,81
2023-03-23T22:04:42.737Z,90
2023-03-23T22:06:49.004Z,99.2
2023-03-23T22:08:55.282Z,99.5
2023-03-23T22:34:16.213Z,99.9
2023-03-23T22:36:22.515Z,99.9
2023-03-23T22:38:28.757Z,99.9
2023-03-23T22:40:35.048Z,99.9
2023-03-23T22:49:02.978Z,1
2023-03-23T22:51:09.233Z,1
2023-03-23T22:53:15.503Z,59.7
2023-03-23T22:54:20.054Z,59.7
2023-03-23T23:02:47.998Z,99.8
2023-03-23T23:04:54.242Z,99.8
2023-03-23T23:09:06.770Z,1
2023-03-23T23:17:35.011Z,47.5
2023-03-23T23:19:40.961Z,59.7
2023-03-23T23:21:47.243Z,77.9
2023-03-23T23:28:06.069Z,99.6
2023-03-23T23:32:21.576Z,99.6
2023-03-23T23:36:33.946Z,59.8
2023-03-23T23:40:46.765Z,99.6
2023-03-23T23:42:52.753Z,99.8
2023-03-23T23:49:14.359Z,99.8
2023-03-23T23:51:20.640Z,60.2
2023-03-23T23:58:43.983Z,59.5
